Arlington, TN (38002)

2:55 PM CST on December 27, 2014 (GMT -0600)
Hidden Meadows | Change Station
CLOSE
Current Station
Personal Weather Station
Location: Arlington, TN
Elevation: 304 ft
Nearby Weather Stations

Elev 304 ft 35.27 °N, 89.69 °W | Updated 35 seconds ago

Overcast
Overcast
53.4 °F
Feels Like 53.4 °F
N
0.0
Wind Variable Wind from SE
Gusts 0.0 mph

Today
High -- | Low -- °F
--% Chance of Precip.
Yesterday
High -- | Low -- °F
Precip. -- in
7:06 AM 4:53 PM
Waxing Crescent, 40% visible
Pressure 30.08 in
Visibility 5.0 miles
Clouds Scattered Clouds 600 ft
Overcast 1200 ft
Dew Point 53 °F
Humidity 98%
Rainfall 0.20 in
Snow Depth Not available.
UV 1 out of 12
Pollen .10 out of 12
Air Quality Not available.
Flu Activity Not available.
METAR KNQA 271950Z 13005KT 5SM BR SCT006 OVC012 13/12 A3008

More Conditions Fewer Conditions

Pressure 30.08 in
Visibility 5.0 miles
Clouds Scattered Clouds 600 ft
Overcast 1200 ft
Dew Point 53 °F
Humidity 98%
Rainfall 0.20 in
Snow Depth Not available.
UV 1 out of 12
Pollen .10 out of 12
Air Quality Not available.
Flu Activity Not available.
METAR KNQA 271950Z 13005KT 5SM BR SCT006 OVC012 13/12 A3008

More Conditions Fewer Conditions

10-Day Weather Forecast

Almanac

Astronomy

Dec. 27, 2014 Rise Set
Actual Time
Civil Twilight
Nautical Twilight
Astronomical Twilight
Moon
Length of Visible Light
Length of Day
Tomorrow will be .
, % of the Moon is Illuminated

Today's Extremes

State Highs State Lows

Community

WunderPhotos

Upload Photos

1,781,053 photos uploaded!

WunderBlogs® & News

Nearby

Air Quality

  Air Quality AQ Index Pollutant
Not available.

Snow Depth

Station Depth Elevation

Earthquake Activity

City Distance Mag. Time & Date
Minimum magnitude displayed is 2.5.

Coastal Water Temperatures

Place Temperature

Nearby Weather Stations